KPMD/PMD METAR and TAF weather

Enter ICAO airport designator
Station Type Date Time Source
KPMD METAR 2021/06/24 06:53 UTC NOAA

KPMD 240653Z AUTO 15003KT 10SM CLR 22/07 A3002 RMK AO2 SLP133 T02170067


Station Type Date Time Source
KPMD Decoded METAR 2021/06/24 06:53 UTC NOAA

PALMDALE PROD FLIGHT PLANT, CA, United States (KPMD) 34-38N 118-05W 780M
Jun 24, 2021 - 02:53 AM EDT / 2021.06.24 0653 UTC
Wind: from the SSE (150 degrees) at 3 MPH (3 KT):0
Visibility: 10 mile(s):0
Sky conditions: clear
Temperature: 71.1 F (21.7 C)
Dew Point: 44.1 F (6.7 C)
Relative Humidity: 37%
Pressure (altimeter): 30.02 in. Hg (1016 hPa)
ob: KPMD 240653Z AUTO 15003KT 10SM CLR 22/07 A3002 RMK AO2 SLP133 T02170067
cycle: 7

Station Type Date Time Source
KPMD TAF 2021/06/24 06:46 UTC NOAA

TAF KPMD 240544Z 2406/2506 19006KT P6SM SKC
FM241800 24010KT P6SM SKC
FM242100 23017G25KT P6SM SKC
FM250400 24012KT P6SM SKC

Example: see airport list